Flight Track Log - Related Links

Times and Time Zones

All times are in EDT time to prevent confusion due to time zone crossing. See the EJM214 flight status page for this flight to view local times or setup timezone preferences in your user account.

Time Position Orientation Groundspeed Altitude Reporting Facility
EDT Latitude Longitude Course Direction KTS MPH feet Rate Location/Type
Sun 05:15:39 PM 36.6333 -121.9000 63° Northeast 243 280 3,800  Level Northern Cal TRACON
Sun 05:16:39 PM 36.6833 -121.8667 28° Northeast 277 319 7,100 2,876 Climbing Northern Cal TRACON
Sun 05:17:40 PM 36.7000 -121.7833 76° East 232 267 9,600 3,050 Climbing Northern Cal TRACON
Sun 05:18:39 PM 36.7000 -121.6667 90° East 284 327 13,200 3,100 Climbing Northern Cal TRACON
Sun 05:19:40 PM 36.7000 -121.5333 90° East 352 405 15,800 1,818 Climbing Northern Cal TRACON
Sun 05:20:51 PM 36.7014 -121.4078 89° East 366 421 17,200 1,455 Climbing Oakland Center
Sun 05:21:00 PM 36.9249 -121.0055 63° Northeast  Level Estimated
Sun 05:21:52 PM 36.7061 -121.2694 88° East 388 447 19,000  Level Oakland Center
Sun 05:22:54 PM 36.7086 -121.1308 89° East 395 455 20,000 919 Climbing Oakland Center
Sun 05:23:56 PM 36.6914 -120.9925 99° East 410 472 20,900 488 Climbing Oakland Center
Sun 05:24:57 PM 36.6525 -120.8333 107° East 406 467 21,000 1,073 Climbing Oakland Center
Sun 05:25:59 PM 36.6350 -120.6958 99° East 406 467 23,100 2,129 Climbing Oakland Center
Sun 05:27:01 PM 36.6769 -120.5556 70° East 431 496 25,400 2,098 Climbing Oakland Center
Sun 05:28:02 PM 36.7422 -120.4231 58° Northeast 443 510 27,400 1,951 Climbing Oakland Center
Sun 05:29:04 PM 36.8086 -120.2867 59° Northeast 453 521 29,400 1,742 Climbing Oakland Center
Sun 05:30:06 PM 36.8772 -120.1500 58° Northeast 461 531 31,000 1,756 Climbing Oakland Center
Sun 05:31:07 PM 36.9453 -120.0094 59° Northeast 471 542 33,000 1,951 Climbing Oakland Center
Sun 05:32:09 PM 37.0128 -119.8717 58° Northeast 467 537 35,000 1,839 Climbing Oakland Center
Sun 05:33:11 PM 37.0928 -119.7069 59° Northeast 464 534 36,800 1,415 Climbing Oakland Center
Sun 05:34:12 PM 37.1589 -119.5675 59° Northeast 467 537 37,900 1,024 Climbing Oakland Center
Sun 05:35:14 PM 37.1994 -119.4131 72° East 464 534 38,900 1,024 Climbing Oakland Center
Sun 05:36:15 PM 37.2358 -119.2572 74° East 464 534 40,000 976 Climbing Oakland Center
Sun 05:37:17 PM 37.2722 -119.1025 73° East 462 532 40,900 968 Climbing Oakland Center
Sun 05:38:19 PM 37.3092 -118.9467 73° East 465 535 42,000 976 Climbing Oakland Center
Sun 05:39:20 PM 37.3433 -118.7936 74° East 458 527 42,900 634 Climbing Oakland Center
Sun 05:40:22 PM 37.3939 -118.6469 67° East 460 529 43,300 488 Climbing Oakland Center
Sun 05:41:23 PM 37.4619 -118.4714 64° Northeast 464 534 43,900 537 Climbing Oakland Center
Sun 05:42:25 PM 37.5172 -118.3261 64° Northeast 463 533 44,400 537 Climbing Oakland Center
Sun 05:43:26 PM 37.5725 -118.1819 64° Northeast 459 528 45,000 293 Climbing Oakland Center
Sun 05:44:28 PM 37.6286 -118.0372 64° Northeast 459 528 45,000  Level Oakland Center
Sun 05:45:30 PM 37.6828 -117.8933 65° Northeast 457 526 45,000  Level Oakland Center
Sun 05:46:31 PM 37.7372 -117.7492 64° Northeast 456 525 45,000  Level Oakland Center
Sun 05:47:33 PM 37.7914 -117.6053 64° Northeast 455 524 45,000  Level Oakland Center
Sun 05:48:34 PM 37.8561 -117.4322 65° Northeast 456 525 45,000  Level Oakland Center
Sun 05:49:36 PM 37.9094 -117.2864 65° Northeast 458 527 45,000  Level Oakland Center
Sun 05:50:37 PM 37.9633 -117.1400 65° Northeast 464 534 45,000  Level Oakland Center
Sun 05:51:39 PM 38.0175 -116.9936 65° Northeast 467 537 45,000  Level Oakland Center
Sun 05:52:41 PM 38.0728 -116.8447 65° Northeast 471 542 45,000  Level Oakland Center
Sun 05:53:46 PM 38.1381 -116.6661 65° Northeast 470 541 45,000  Level Salt Lake Center
Sun 05:54:48 PM 38.1919 -116.5189 65° Northeast 464 534 45,000  Level Salt Lake Center
Sun 05:55:50 PM 38.2442 -116.3736 65° Northeast 454 522 45,000  Level Salt Lake Center
Sun 05:56:52 PM 38.2969 -116.2264 65° Northeast 458 527 45,000  Level Salt Lake Center
Sun 05:57:54 PM 38.3503 -116.0767 66° East 464 534 45,000  Level Salt Lake Center
Sun 05:58:56 PM 38.4144 -115.8975 65° Northeast 464 534 45,000  Level Salt Lake Center
Sun 05:59:58 PM 38.4661 -115.7475 66° East 463 533 45,000  Level Salt Lake Center
Sun 06:01:00 PM 38.5203 -115.5978 65° Northeast 465 535 45,000  Level Salt Lake Center
Sun 06:02:02 PM 38.5733 -115.4481 66° East 465 535 45,000  Level Salt Lake Center
Sun 06:03:04 PM 38.6289 -115.2864 66° East 464 534 45,000  Level Salt Lake Center
Sun 06:04:06 PM 38.6811 -115.1364 66° East 463 533 45,000  Level Salt Lake Center
Sun 06:05:08 PM 38.7328 -114.9831 67° East 465 535 45,000  Level Salt Lake Center
Sun 06:06:10 PM 38.7867 -114.8294 66° East 469 540 45,000  Level Salt Lake Center
Sun 06:07:12 PM 38.8389 -114.6756 66° East 472 543 45,000  Level Salt Lake Center
Sun 06:08:14 PM 38.9028 -114.4894 66° East 474 545 45,000  Level Salt Lake Center
Sun 06:09:15 PM 38.9553 -114.3347 66° East 473 544 45,000  Level Salt Lake Center
Sun 06:10:18 PM 39.0075 -114.1783 67° East 476 548 45,000  Level Salt Lake Center
Sun 06:11:19 PM 39.0586 -114.0217 67° East 475 547 45,000  Level Salt Lake Center
Sun 06:12:21 PM 39.1111 -113.8631 67° East 480 552 45,000  Level Salt Lake Center
Sun 06:13:23 PM 39.1628 -113.7081 67° East 473 544 45,000  Level Salt Lake Center
Sun 06:14:25 PM 39.2133 -113.5542 67° East 469 540 45,000  Level Salt Lake Center
Sun 06:15:26 PM 39.2733 -113.3681 67° East 468 539 45,000  Level Salt Lake Center
Sun 06:16:28 PM 39.3242 -113.2122 67° East 471 542 45,000  Level Salt Lake Center
Sun 06:17:30 PM 39.3736 -113.0575 67° East 468 539 45,000  Level Salt Lake Center
Sun 06:18:32 PM 39.4236 -112.9017 67° East 469 540 45,000  Level Salt Lake Center
Sun 06:19:34 PM 39.4733 -112.7467 67° East 467 537 45,000  Level Salt Lake Center
Sun 06:20:36 PM 39.5231 -112.5922 67° East 461 531 45,000  Level Salt Lake Center
Sun 06:21:37 PM 39.5722 -112.4372 68° East 465 535 45,000  Level Salt Lake Center
Sun 06:22:39 PM 39.6294 -112.2500 68° East 467 537 45,000  Level Salt Lake Center
Sun 06:23:41 PM 39.6775 -112.0942 68° East 467 537 45,000  Level Salt Lake Center
Sun 06:24:43 PM 39.7256 -111.9378 68° East 469 540 45,000  Level Salt Lake Center
Sun 06:25:45 PM 39.7736 -111.7808 68° East 471 542 45,000  Level Salt Lake Center
Sun 06:26:46 PM 39.8200 -111.6225 69° East 471 542 45,000  Level Salt Lake Center
Sun 06:27:48 PM 39.8742 -111.4442 68° East 473 544 45,000  Level Salt Lake Center
Sun 06:28:50 PM 39.9211 -111.2925 68° East 470 541 45,000  Level Salt Lake Center
Sun 06:29:51 PM 39.9758 -111.1172 68° East 467 537 45,000  Level Salt Lake Center
Sun 06:30:53 PM 40.0217 -110.9631 69° East 474 545 45,000  Level Salt Lake Center
Sun 06:31:55 PM 40.0639 -110.7797 73° East 473 544 45,000  Level Salt Lake Center
Sun 06:32:56 PM 40.0997 -110.6206 74° East 477 549 45,000  Level Salt Lake Center
Sun 06:33:58 PM 40.1583 -110.4736 62° Northeast 475 547 45,000  Level Salt Lake Center
Sun 06:35:00 PM 40.2194 -110.3011 65° Northeast 467 537 45,000  Level Salt Lake Center
Sun 06:36:01 PM 40.2600 -110.1472 71° East 467 537 45,000  Level Salt Lake Center
Sun 06:37:03 PM 40.3122 -109.9658 69° East 473 544 45,000  Level Salt Lake Center
Sun 06:38:04 PM 40.3564 -109.8097 70° East 475 547 45,000  Level Salt Lake Center
Sun 06:39:06 PM 40.4014 -109.6550 69° East 474 545 45,000  Level Salt Lake Center
Sun 06:40:08 PM 40.4525 -109.4717 70° East 476 548 45,000  Level Salt Lake Center
Sun 06:41:09 PM 40.4964 -109.3150 70° East 477 549 45,000  Level Salt Lake Center
Sun 06:42:11 PM 40.5475 -109.1317 70° East 477 549 45,000  Level Salt Lake Center
Sun 06:43:13 PM 40.5931 -108.9656 70° East 481 554 45,000  Level Salt Lake Center
Sun 06:44:14 PM 40.6367 -108.8061 70° East 486 559 45,000  Level Salt Lake Center
Sun 06:44:54 PM 40.6650 -108.7044 70° East 482 555 45,000  Level Denver Center
Sun 06:46:08 PM 40.7228 -108.4900 70° East 484 557 45,000  Level Denver Center
Sun 06:47:10 PM 40.7739 -108.2989 70° East 488 562 45,000  Level Denver Center
Sun 06:48:12 PM 40.8164 -108.1394 71° East 486 559 45,000  Level Denver Center
Sun 06:49:13 PM 40.8600 -107.9772 70° East 489 563 45,000  Level Denver Center
Sun 06:50:15 PM 40.9031 -107.8156 71° East 490 564 45,000  Level Denver Center
Sun 06:51:17 PM 40.9522 -107.6253 71° East 491 565 45,000  Level Denver Center
Sun 06:52:19 PM 41.0022 -107.4361 71° East 490 564 45,000  Level Denver Center
Sun 06:53:21 PM 41.0442 -107.2719 71° East 492 566 45,000  Level Denver Center
Sun 06:54:23 PM 41.0914 -107.0822 72° East 489 563 45,000  Level Denver Center
Sun 06:55:25 PM 41.1347 -106.9189 71° East 490 564 45,000  Level Denver Center
Sun 06:56:26 PM 41.1814 -106.7269 72° East 490 564 45,000  Level Denver Center
Sun 06:57:28 PM 41.2144 -106.5894 72° East 491 565 45,000  Level Denver Center
Sun 06:58:30 PM 41.2719 -106.3694 71° East 493 567 45,000  Level Denver Center
Sun 06:59:34 PM 41.3108 -106.2069 72° East 491 565 45,000  Level Denver Center
Sun 07:00:36 PM 41.3586 -106.0164 71° East 485 558 45,000  Level Denver Center
Sun 07:01:38 PM 41.4014 -105.8519 71° East 491 565 45,000  Level Denver Center
Sun 07:02:40 PM 41.4647 -105.6697 65° Northeast 488 562 45,000  Level Denver Center
Sun 07:03:42 PM 41.5200 -105.5161 64° Northeast 480 552 45,000  Level Denver Center
Sun 07:04:44 PM 41.5839 -105.3344 65° Northeast 482 555 45,000  Level Denver Center
Sun 07:05:46 PM 41.6286 -105.2056 65° Northeast 481 554 45,000 48 Level Denver Center
Sun 07:06:48 PM 41.6992 -104.9989 65° Northeast 481 554 45,100  Climbing Denver Center
Sun 07:07:50 PM 41.7517 -104.8442 66° East 476 548 45,000 -48 Descending Denver Center
Sun 07:08:52 PM 41.8117 -104.6744 65° Northeast 456 525 45,000  Level Denver Center
Sun 07:09:54 PM 41.8603 -104.5253 66° East 457 526 45,000  Level Denver Center
Sun 07:10:56 PM 41.9008 -104.3386 74° East 466 536 45,000 48 Level Denver Center
Sun 07:11:58 PM 41.9356 -104.1725 74° East 480 552 45,100  Climbing Denver Center
Sun 07:13:00 PM 41.9786 -103.9742 74° East 496 571 45,000 -48 Descending Denver Center
Sun 07:14:02 PM 42.0153 -103.8011 74° East 504 580 45,000  Level Denver Center
Sun 07:15:04 PM 42.0553 -103.6039 75° East 492 566 45,000  Level Denver Center
Sun 07:16:06 PM 42.0911 -103.4356 74° East 491 565 45,000  Level Denver Center
Sun 07:18:10 PM 42.1658 -103.0667 75° East 493 567 45,000  Level Denver Center
Sun 07:19:12 PM 42.1994 -102.8972 75° East 491 565 45,000  Level Denver Center
Sun 07:20:27 PM 42.2447 -102.6697 75° East 491 565 45,000  Level Denver Center
Sun 07:21:29 PM 42.2833 -102.4717 75° East 490 564 45,000  Level Denver Center
Sun 07:22:31 PM 42.3175 -102.3028 75° East 489 563 45,000  Level Denver Center
Sun 07:23:33 PM 42.3561 -102.1061 75° East 486 559 45,000  Level Denver Center
Sun 07:24:35 PM 42.3867 -101.9389 76° East 481 554 45,000  Level Denver Center
Sun 07:25:37 PM 42.4222 -101.7544 75° East 481 554 45,000  Level Denver Center
Sun 07:26:39 PM 42.4539 -101.5858 76° East 482 555 45,000  Level Denver Center
Sun 07:27:41 PM 42.4908 -101.3869 76° East 486 559 45,000  Level Denver Center
Sun 07:28:43 PM 42.5214 -101.2172 76° East 485 558 45,000  Level Denver Center
Sun 07:29:45 PM 42.5578 -101.0175 76° East 487 560 45,000  Level Denver Center
Sun 07:30:47 PM 42.5889 -100.8483 76° East 485 558 45,000  Level Denver Center
Sun 07:31:49 PM 42.6250 -100.6478 76° East 488 562 45,000  Level Denver Center
Sun 07:32:51 PM 42.6550 -100.4731 77° East 493 567 45,000  Level Denver Center
Sun 07:33:53 PM 42.6900 -100.2736 77° East 489 563 45,000  Level Denver Center
Sun 07:34:55 PM 42.7172 -100.1169 77° East 489 563 45,000  Level Denver Center
Sun 07:35:57 PM 42.7531 -99.9050 77° East 483 556 45,000  Level Denver Center
Sun 07:36:59 PM 42.7831 -99.7300 77° East 479 551 45,000  Level Denver Center
Sun 07:38:02 PM 42.8125 -99.5542 77° East 478 550 45,000  Level Denver Center
Sun 07:39:04 PM 42.8417 -99.3742 77° East 484 557 45,000  Level Denver Center
Sun 07:40:06 PM 42.8747 -99.1817 77° East 479 551 45,000  Level Denver Center
Sun 07:41:32 PM 42.9153 -98.9281 78° East 481 554 45,000  Level Minneapolis Center
Sun 07:42:34 PM 42.9444 -98.7528 77° East 477 549 45,000  Level Minneapolis Center
Sun 07:43:36 PM 42.9722 -98.5772 78° East 476 548 45,000  Level Minneapolis Center
Sun 07:44:38 PM 42.9994 -98.4022 78° East 474 545 45,000  Level Minneapolis Center
Sun 07:45:40 PM 43.0319 -98.1908 78° East 475 547 45,000  Level Minneapolis Center
Sun 07:46:42 PM 43.0597 -98.0142 78° East 477 549 45,000  Level Minneapolis Center
Sun 07:47:44 PM 43.0864 -97.8364 78° East 478 550 45,000  Level Minneapolis Center
Sun 07:48:46 PM 43.1136 -97.6592 78° East 479 551 45,000  Level Minneapolis Center
Sun 07:49:48 PM 43.1392 -97.4803 79° East 480 552 45,000  Level Minneapolis Center
Sun 07:50:50 PM 43.1658 -97.3033 78° East 477 549 45,000  Level Minneapolis Center
Sun 07:51:51 PM 43.1953 -97.0889 79° East 478 550 45,000  Level Minneapolis Center
Sun 07:52:53 PM 43.2214 -96.9092 79° East 482 555 45,000  Level Minneapolis Center
Sun 07:53:55 PM 43.2442 -96.7331 80° East 477 549 45,000  Level Minneapolis Center
Sun 07:54:57 PM 43.2714 -96.5564 78° East 476 548 45,000  Level Minneapolis Center
Sun 07:55:59 PM 43.2944 -96.3789 80° East 477 549 45,000  Level Minneapolis Center
Sun 07:57:01 PM 43.3192 -96.2014 79° East 476 548 45,000  Level Minneapolis Center
Sun 07:58:03 PM 43.3481 -95.9875 79° East 478 550 45,000  Level Minneapolis Center
Sun 07:59:08 PM 43.3717 -95.8089 80° East 478 550 45,000  Level Minneapolis Center
Sun 08:00:10 PM 43.3950 -95.6308 80° East 478 550 45,000  Level Minneapolis Center
Sun 08:01:12 PM 43.4178 -95.4533 80° East 476 548 45,000  Level Minneapolis Center
Sun 08:02:14 PM 43.4408 -95.2753 80° East 477 549 45,000 -387 Level Minneapolis Center
Sun 08:03:16 PM 43.4678 -95.0625 80° East 474 545 44,200 -1,306 Descending Minneapolis Center
Sun 08:04:18 PM 43.4889 -94.8794 81° East 485 558 42,300 -1,902 Descending Minneapolis Center
Sun 08:05:19 PM 43.5114 -94.6928 81° East 495 570 40,300 -1,756 Descending Minneapolis Center
Sun 08:06:21 PM 43.5336 -94.5131 80° East 484 557 38,700 -1,694 Descending Minneapolis Center
Sun 08:07:23 PM 43.5536 -94.3433 81° East 458 527 36,800 -2,081 Descending Minneapolis Center
Sun 08:08:25 PM 43.5758 -94.1647 80° East 456 525 34,400 -2,468 Descending Minneapolis Center
Sun 08:09:27 PM 43.6000 -93.9514 81° East 470 541 31,700 -2,226 Descending Minneapolis Center
Sun 08:10:29 PM 43.6208 -93.7675 81° East 484 557 29,800 -1,854 Descending Minneapolis Center
Sun 08:11:30 PM 43.6408 -93.5811 82° East 492 566 27,900 -1,854 Descending Minneapolis Center
Sun 08:12:32 PM 43.6614 -93.4036 81° East 477 549 26,000 -1,676 Descending Minneapolis Center
Sun 08:13:46 PM 43.6803 -93.2306 81° East 462 532 24,100 -1,897 Descending Minneapolis Center
Sun 08:14:48 PM 43.7042 -93.0081 81° East 455 524 21,700 -2,032 Descending Minneapolis Center
Sun 08:15:50 PM 43.7211 -92.8419 82° East 448 516 19,900 -1,742 Descending Minneapolis Center
Sun 08:16:52 PM 43.7389 -92.6839 81° East 429 494 18,100 -1,645 Descending Minneapolis Center
Sun 08:17:54 PM 43.7547 -92.5300 82° East 413 475 16,500 -1,839 Descending Minneapolis Center
Sun 08:18:56 PM 43.7731 -92.3478 82° East 404 465 14,300 -1,935 Descending Minneapolis Center
Sun 08:19:58 PM 43.7864 -92.2114 82° East 357 411 12,500 -1,854 Descending Minneapolis Center
Sun 08:20:59 PM 43.7983 -92.0886 82° East 326 375 10,500 -1,951 Descending Minneapolis Center
Sun 08:22:01 PM 43.8106 -91.9628 82° East 308 354 8,500 -1,694 Descending Minneapolis Center
Sun 08:23:03 PM 43.8222 -91.8392 83° East 305 351 7,000 -774 Descending Minneapolis Center
Sun 08:24:05 PM 43.8336 -91.7275 82° East 297 342 6,900 -823 Descending Minneapolis Center
Sun 08:25:07 PM 43.8517 -91.6106 78° East 295 339 5,300 -1,355 Descending Minneapolis Center
Sun 08:26:09 PM 43.8756 -91.5042 73° East 277 319 4,100 -1,065 Descending Minneapolis Center
Sun 08:27:11 PM 43.9000 -91.4125 70° East 262 302 3,100 -726 Descending Minneapolis Center
Sun 08:28:13 PM 43.9244 -91.3292 68° East 228 262 2,600 -339 Descending Minneapolis Center
Sun 08:29:15 PM 43.9408 -91.2581 72° East 210 242 2,400 -194 Descending Minneapolis Center

Login

Don't have an account? Register now (free) for customized features, flight alerts, and more!